Time;durP1;ratioP1;P1;durP2;ratioP2;P2;SDS_P1;SDS_P2;PMS_P1;PMS_P2;Temp;Humidity;BMP_temperature;BMP_pressure;BME280_temperature;BME280_humidity;BME280_pressure;Samples;Min_cycle;Max_cycle;Signal;HPM_P1;HPM_P2
2023/11/15 00:01:39;;;;;;;2.47;0.77;;;12.10;99.90;;;;;;6239447;28;20049;-79
2023/11/15 00:04:40;;;;;;;0.73;0.73;;;12.10;99.90;;;;;;6233480;28;20049;-79
2023/11/15 00:07:42;;;;;;;1.08;0.63;;;12.10;99.90;;;;;;6239220;28;20529;-79
2023/11/15 00:10:44;;;;;;;1.52;1.42;;;12.10;99.90;;;;;;6233320;28;20041;-78
2023/11/15 00:13:48;;;;;;;3.92;1.00;;;12.10;99.90;;;;;;6237332;28;20041;-79
2023/11/15 00:16:51;;;;;;;0.47;0.47;;;12.10;99.90;;;;;;6240820;28;20124;-80
2023/11/15 00:19:53;;;;;;;1.88;0.60;;;12.10;99.90;;;;;;6239921;28;20102;-80
2023/11/15 00:22:55;;;;;;;2.53;2.33;;;12.10;99.90;;;;;;6241564;28;20491;-80
2023/11/15 00:25:58;;;;;;;1.10;0.65;;;12.10;99.90;;;;;;6253450;28;20039;-78
2023/11/15 00:28:59;;;;;;;1.65;0.80;;;12.10;99.90;;;;;;6252667;28;20502;-81
2023/11/15 00:32:02;;;;;;;0.93;0.73;;;12.10;99.90;;;;;;6239414;28;20042;-80
2023/11/15 00:35:06;;;;;;;5.15;0.82;;;12.00;99.90;;;;;;6236724;28;20045;-80
2023/11/15 00:38:08;;;;;;;2.08;0.73;;;12.00;99.90;;;;;;6238688;28;20045;-80
2023/11/15 00:41:10;;;;;;;1.77;0.82;;;12.00;99.90;;;;;;6237152;28;20042;-80
2023/11/15 00:44:11;;;;;;;7.22;1.58;;;12.00;99.90;;;;;;6239503;28;20049;-80
2023/11/15 00:47:14;;;;;;;4.13;1.30;;;12.00;99.90;;;;;;6236666;28;20038;-79
2023/11/15 00:50:16;;;;;;;2.92;0.65;;;11.90;99.90;;;;;;6238852;28;20048;-80
2023/11/15 00:53:18;;;;;;;4.47;1.05;;;11.90;99.90;;;;;;6238342;28;20060;-80
2023/11/15 00:56:20;;;;;;;1.17;0.70;;;11.90;99.90;;;;;;6245011;28;20092;-79
2023/11/15 00:59:26;;;;;;;3.97;1.23;;;11.90;99.90;;;;;;6241520;28;20526;-78
2023/11/15 01:02:32;;;;;;;6.60;0.80;;;11.90;99.90;;;;;;6247291;28;20050;-80
2023/11/15 01:05:34;;;;;;;3.83;1.50;;;12.00;99.90;;;;;;6247997;28;20507;-78
2023/11/15 01:08:35;;;;;;;4.47;1.08;;;12.00;99.90;;;;;;6239918;28;20066;-79
2023/11/15 01:11:38;;;;;;;2.10;0.80;;;12.00;99.90;;;;;;6244636;28;20046;-80
2023/11/15 01:14:40;;;;;;;1.98;0.88;;;11.90;99.90;;;;;;6236984;28;20057;-78
2023/11/15 01:17:43;;;;;;;5.65;0.55;;;11.90;99.90;;;;;;6242594;28;20180;-78
2023/11/15 01:20:45;;;;;;;1.58;0.80;;;11.90;99.90;;;;;;6236238;28;20049;-80
2023/11/15 01:23:46;;;;;;;8.25;2.05;;;11.90;99.90;;;;;;6239292;28;20455;-79
2023/11/15 01:26:48;;;;;;;1.42;0.70;;;11.90;99.90;;;;;;6251679;28;20069;-79
2023/11/15 01:29:50;;;;;;;2.67;0.82;;;11.80;99.90;;;;;;6236988;28;20430;-78
2023/11/15 01:32:53;;;;;;;2.58;0.82;;;11.80;99.90;;;;;;6250294;28;20052;-78
2023/11/15 01:35:55;;;;;;;3.45;1.15;;;11.90;99.90;;;;;;6240926;28;20053;-79
2023/11/15 01:38:57;;;;;;;4.25;1.23;;;11.80;99.90;;;;;;6241102;28;20483;-79
2023/11/15 01:41:58;;;;;;;1.23;0.90;;;11.80;99.90;;;;;;6239042;28;20529;-78
2023/11/15 01:45:02;;;;;;;3.53;0.85;;;11.80;99.90;;;;;;6233212;28;20052;-79
2023/11/15 01:48:06;;;;;;;4.78;0.90;;;11.80;99.90;;;;;;6239840;28;20046;-81
2023/11/15 01:51:08;;;;;;;1.13;0.80;;;11.80;99.90;;;;;;6236413;28;20042;-78
2023/11/15 01:54:13;;;;;;;2.25;0.70;;;11.80;99.90;;;;;;6231174;28;20045;-79
2023/11/15 01:57:15;;;;;;;0.82;0.77;;;11.80;99.90;;;;;;6223100;28;20045;-79
2023/11/15 02:00:17;;;;;;;4.78;0.70;;;11.70;99.90;;;;;;6237522;28;20045;-77
2023/11/15 02:03:20;;;;;;;5.82;1.42;;;11.70;99.90;;;;;;6230827;28;20502;-78
2023/11/15 02:06:22;;;;;;;3.55;1.13;;;11.70;99.90;;;;;;6231195;28;20566;-78
2023/11/15 02:09:24;;;;;;;3.67;0.95;;;11.70;99.90;;;;;;6239235;28;20045;-78
2023/11/15 02:12:26;;;;;;;1.98;1.00;;;11.70;99.90;;;;;;6225172;28;20502;-78
2023/11/15 02:15:28;;;;;;;0.73;0.60;;;11.70;99.90;;;;;;6231698;28;20053;-77
2023/11/15 02:18:31;;;;;;;3.25;1.10;;;11.70;99.90;;;;;;6231656;28;20050;-78
2023/11/15 02:46:03;;;;;;;6.53;1.10;;;11.60;99.90;;;;;;6226555;28;20120;-79
2023/11/15 02:57:13;;;;;;;1.77;1.25;;;11.50;99.90;;;;;;6225279;28;20029;-78
2023/11/15 03:00:16;;;;;;;3.72;1.10;;;11.30;99.90;;;;;;6233688;28;20054;-78
2023/11/15 03:03:18;;;;;;;4.57;1.38;;;11.30;99.90;;;;;;6243468;28;20061;-78
2023/11/15 03:06:20;;;;;;;2.20;1.42;;;11.20;99.90;;;;;;6240547;28;20470;-78
2023/11/15 03:09:22;;;;;;;4.63;1.15;;;11.10;99.90;;;;;;6235912;28;20061;-77
2023/11/15 03:12:25;;;;;;;1.17;0.98;;;11.20;99.90;;;;;;6246346;28;20059;-77
2023/11/15 03:15:27;;;;;;;1.65;1.55;;;11.20;99.90;;;;;;6228706;28;20053;-78
2023/11/15 03:18:29;;;;;;;6.43;1.30;;;11.20;99.90;;;;;;6230633;28;20046;-77
2023/11/15 03:21:31;;;;;;;5.07;1.55;;;11.20;99.90;;;;;;6244867;28;20041;-78
2023/11/15 03:24:33;;;;;;;3.95;1.25;;;11.20;99.90;;;;;;6237878;28;20053;-77
2023/11/15 03:27:36;;;;;;;5.53;0.95;;;11.20;99.90;;;;;;6246210;28;20411;-79
2023/11/15 03:30:37;;;;;;;1.00;0.80;;;11.20;99.90;;;;;;6245337;28;20068;-77
2023/11/15 03:33:39;;;;;;;8.00;1.23;;;11.20;99.90;;;;;;6237298;28;20076;-78
2023/11/15 03:36:42;;;;;;;8.55;1.38;;;11.10;99.90;;;;;;6239449;28;20056;-79
2023/11/15 03:39:45;;;;;;;1.35;0.90;;;11.10;99.90;;;;;;6245439;28;20046;-78
2023/11/15 03:42:48;;;;;;;4.63;1.23;;;11.10;99.90;;;;;;6229139;28;20052;-77
2023/11/15 03:45:50;;;;;;;3.47;1.15;;;11.10;99.90;;;;;;6233814;28;20529;-79
2023/11/15 03:48:51;;;;;;;5.95;1.00;;;11.10;99.90;;;;;;6244090;28;20046;-78
2023/11/15 03:51:53;;;;;;;3.88;1.08;;;11.10;99.90;;;;;;6221008;28;20041;-79
2023/11/15 03:54:55;;;;;;;4.75;1.27;;;11.20;99.90;;;;;;6221031;28;20533;-79
2023/11/15 03:57:58;;;;;;;2.88;1.20;;;11.20;99.90;;;;;;6229510;28;20092;-79
2023/11/15 04:01:00;;;;;;;5.80;1.40;;;11.20;99.90;;;;;;6228869;28;20049;-76
2023/11/15 04:39:41;;;;;;;2.83;1.02;;;10.50;99.90;;;;;;6239900;28;20057;-77
2023/11/15 04:42:43;;;;;;;4.85;1.30;;;10.40;99.90;;;;;;6240424;28;20048;-78
2023/11/15 04:45:45;;;;;;;2.90;0.88;;;10.40;99.90;;;;;;6248554;28;20050;-78
2023/11/15 04:48:46;;;;;;;2.05;0.98;;;10.40;99.90;;;;;;6241122;28;20056;-78
2023/11/15 04:51:48;;;;;;;5.45;1.48;;;10.40;99.90;;;;;;6241613;28;20045;-76
2023/11/15 04:54:51;;;;;;;6.88;1.25;;;10.40;99.90;;;;;;6232796;28;20426;-77
2023/11/15 04:57:53;;;;;;;5.60;1.38;;;10.50;99.90;;;;;;6249357;28;20045;-78
2023/11/15 05:00:54;;;;;;;3.80;1.35;;;10.50;99.90;;;;;;6238873;28;20053;-78
2023/11/15 05:03:56;;;;;;;4.78;1.60;;;10.40;99.90;;;;;;6226301;28;20056;-78
2023/11/15 05:06:58;;;;;;;4.03;1.50;;;10.50;99.90;;;;;;6240638;28;20502;-76
2023/11/15 05:10:04;;;;;;;2.97;0.90;;;10.50;99.90;;;;;;6248853;28;20052;-78
2023/11/15 05:13:06;;;;;;;3.35;1.60;;;10.50;99.90;;;;;;6229333;28;20100;-79
2023/11/15 05:16:09;;;;;;;3.13;1.42;;;10.50;99.90;;;;;;6235955;28;20059;-78
2023/11/15 05:19:10;;;;;;;8.40;1.65;;;10.50;99.90;;;;;;6244640;28;20042;-77
2023/11/15 05:22:12;;;;;;;6.68;1.65;;;10.50;99.90;;;;;;6235666;28;20506;-77
2023/11/15 05:25:16;;;;;;;3.95;1.08;;;10.50;99.90;;;;;;6231769;28;20068;-77
2023/11/15 05:28:20;;;;;;;2.75;1.65;;;10.50;99.90;;;;;;6228306;28;20124;-78
2023/11/15 05:31:23;;;;;;;1.75;1.25;;;10.50;99.90;;;;;;6245172;28;20042;-77
2023/11/15 05:34:24;;;;;;;3.15;1.30;;;10.50;99.90;;;;;;6247962;28;20045;-77
2023/11/15 05:37:26;;;;;;;6.78;1.35;;;10.40;99.90;;;;;;6233450;28;20052;-79
2023/11/15 05:40:29;;;;;;;5.50;1.10;;;10.40;99.90;;;;;;6238099;28;20049;-79
2023/11/15 05:43:31;;;;;;;4.95;2.45;;;10.30;99.90;;;;;;6239231;28;20049;-77
2023/11/15 05:46:33;;;;;;;3.67;1.40;;;10.30;99.90;;;;;;6233536;28;20049;-77
2023/11/15 05:49:35;;;;;;;3.33;1.88;;;10.20;99.90;;;;;;6237823;28;20045;-78
2023/11/15 05:56:35;;;;;;;4.25;1.65;;;10.20;99.90;;;;;;6226698;28;20045;-77
2023/11/15 05:59:45;;;;;;;6.03;1.38;;;10.20;99.90;;;;;;6229303;28;20044;-78
2023/11/15 06:03:34;;;;;;;4.60;1.45;;;10.20;99.90;;;;;;6244006;28;20045;-78
2023/11/15 06:06:35;;;;;;;5.55;1.17;;;10.30;99.90;;;;;;6234304;28;20057;-77
2023/11/15 06:09:37;;;;;;;7.40;1.95;;;10.30;99.90;;;;;;6230892;28;20049;-77
2023/11/15 06:24:02;;;;;;;1.38;1.00;;;10.10;99.90;;;;;;6240592;28;20045;-77
2023/11/15 06:27:06;;;;;;;10.35;2.13;;;10.10;99.90;;;;;;6232875;28;20052;-77
2023/11/15 06:30:09;;;;;;;6.28;2.67;;;10.20;99.90;;;;;;6240327;28;20529;-77
2023/11/15 06:33:38;;;;;;;3.75;1.48;;;10.20;99.90;;;;;;6234970;28;20045;-76
2023/11/15 06:45:24;;;;;;;7.25;4.65;;;10.30;99.90;;;;;;6250094;28;20042;-76
2023/11/15 06:49:22;;;;;;;6.97;2.78;;;10.30;99.90;;;;;;6245181;28;20144;-77
2023/11/15 06:52:25;;;;;;;5.22;2.05;;;10.20;99.90;;;;;;6226320;28;20396;-77
2023/11/15 06:55:27;;;;;;;6.78;5.63;;;10.20;99.90;;;;;;6234240;28;20052;-76
2023/11/15 06:58:29;;;;;;;8.85;3.40;;;10.20;99.90;;;;;;6232475;28;20050;-77
2023/11/15 07:01:31;;;;;;;4.43;2.38;;;10.20;99.90;;;;;;6237921;28;20050;-78
2023/11/15 07:04:32;;;;;;;8.40;1.83;;;10.30;99.90;;;;;;6243254;28;20057;-76
2023/11/15 07:07:35;;;;;;;4.18;2.67;;;10.30;99.90;;;;;;6237395;28;20054;-77
2023/11/15 07:10:37;;;;;;;4.53;3.15;;;10.40;99.90;;;;;;6245949;28;20399;-77
2023/11/15 07:13:39;;;;;;;6.93;1.95;;;10.40;99.90;;;;;;6238270;28;20422;-77
2023/11/15 07:16:46;;;;;;;10.73;2.97;;;10.40;99.90;;;;;;6230740;28;20049;-77
2023/11/15 07:19:48;;;;;;;7.40;1.55;;;10.50;99.90;;;;;;6241090;28;20057;-77
2023/11/15 07:22:51;;;;;;;8.32;2.08;;;10.50;99.90;;;;;;6237301;28;20068;-76
2023/11/15 07:25:54;;;;;;;7.05;2.40;;;10.60;99.90;;;;;;6236580;28;20045;-77
2023/11/15 07:28:56;;;;;;;6.82;2.15;;;10.60;99.90;;;;;;6237794;28;20394;-77
2023/11/15 07:32:01;;;;;;;7.22;4.22;;;10.60;99.90;;;;;;6245262;28;20400;-78
2023/11/15 07:35:04;;;;;;;7.97;3.13;;;10.60;99.90;;;;;;6243965;28;20051;-78
2023/11/15 07:38:08;;;;;;;9.23;4.68;;;10.60;99.90;;;;;;6243138;28;20139;-77
2023/11/15 07:41:10;;;;;;;6.68;3.30;;;10.70;99.90;;;;;;6229141;28;20066;-77
2023/11/15 07:48:48;;;;;;;4.97;1.88;;;10.80;99.90;;;;;;6234251;28;20042;-78
2023/11/15 07:59:45;;;;;;;4.22;2.75;;;11.00;99.90;;;;;;6233324;28;20034;-77
2023/11/15 08:07:06;;;;;;;2.30;1.50;;;11.40;99.90;;;;;;6186439;28;20575;-76
2023/11/15 08:10:13;;;;;;;5.47;1.90;;;11.50;99.90;;;;;;6185721;28;20042;-77
2023/11/15 08:37:20;;;;;;;4.32;2.47;;;11.90;99.90;;;;;;6220569;28;20022;-76
2023/11/15 08:40:59;;;;;;;13.88;3.20;;;11.80;99.90;;;;;;6236215;28;20045;-78
2023/11/15 09:19:34;;;;;;;5.18;1.65;;;11.70;99.90;;;;;;6212073;28;20038;-78
2023/11/15 09:30:17;;;;;;;2.45;1.40;;;13.00;99.90;;;;;;6193966;28;20101;-80
2023/11/15 09:41:17;;;;;;;6.10;1.60;;;13.20;99.90;;;;;;6169330;28;20038;-80
2023/11/15 09:44:20;;;;;;;9.10;1.17;;;12.90;99.90;;;;;;6174838;28;20057;-78
2023/11/15 09:54:36;;;;;;;32.10;14.25;;;12.60;99.90;;;;;;6200328;28;20046;-80
2023/11/15 09:57:39;;;;;;;19.55;5.28;;;12.50;99.90;;;;;;6229139;28;20046;-79
2023/11/15 10:00:42;;;;;;;9.57;5.97;;;12.40;99.90;;;;;;6230255;28;20049;-76
2023/11/15 10:03:43;;;;;;;6.30;4.03;;;12.40;99.90;;;;;;6243379;28;20054;-75
2023/11/15 10:06:45;;;;;;;5.85;3.15;;;12.30;99.90;;;;;;6230859;28;20115;-78
2023/11/15 10:09:47;;;;;;;1.50;1.40;;;12.30;99.90;;;;;;6221075;28;20415;-79
2023/11/15 10:12:53;;;;;;;3.72;1.42;;;12.20;99.90;;;;;;6221265;28;20414;-81
2023/11/15 10:15:55;;;;;;;8.52;2.03;;;12.20;99.90;;;;;;6219685;28;20511;-82
2023/11/15 10:19:00;;;;;;;1.77;1.50;;;12.10;99.90;;;;;;6210938;28;20473;-79
2023/11/15 10:22:04;;;;;;;5.63;2.10;;;12.20;99.90;;;;;;6216419;28;20522;-77
2023/11/15 10:25:07;;;;;;;5.78;1.88;;;12.30;99.90;;;;;;6219066;28;20499;-81
2023/11/15 10:28:18;;;;;;;9.43;2.80;;;12.40;99.90;;;;;;6227732;28;20046;-79
2023/11/15 10:31:21;;;;;;;5.20;1.63;;;12.40;99.90;;;;;;6221750;28;20073;-81
2023/11/15 10:34:28;;;;;;;7.15;1.60;;;12.50;99.90;;;;;;6231232;28;20130;-81
2023/11/15 10:37:31;;;;;;;6.15;1.98;;;12.40;99.90;;;;;;6231819;28;20063;-82
2023/11/15 10:40:33;;;;;;;2.28;1.30;;;12.30;99.90;;;;;;6243474;28;20105;-80
2023/11/15 10:43:37;;;;;;;2.28;1.45;;;12.10;99.90;;;;;;6226013;28;20160;-76
2023/11/15 10:46:42;;;;;;;5.13;1.67;;;12.00;99.90;;;;;;6238819;28;20057;-80
2023/11/15 10:49:45;;;;;;;5.32;1.52;;;12.00;99.90;;;;;;6235181;28;20041;-80
2023/11/15 10:52:48;;;;;;;6.28;0.98;;;12.00;99.90;;;;;;6232876;28;20430;-79
2023/11/15 10:55:52;;;;;;;14.65;2.13;;;12.00;99.90;;;;;;6248158;28;20524;-79
2023/11/15 10:58:55;;;;;;;5.25;1.50;;;12.10;99.90;;;;;;6232988;28;20053;-79
2023/11/15 11:02:00;;;;;;;4.85;2.80;;;12.10;99.90;;;;;;6244701;28;20663;-78
2023/11/15 11:05:04;;;;;;;3.00;1.23;;;12.10;99.90;;;;;;6242754;28;20593;-80
2023/11/15 11:08:15;;;;;;;2.17;1.58;;;12.10;99.90;;;;;;6237718;28;20099;-77
2023/11/15 11:11:26;;;;;;;5.68;1.65;;;12.20;99.90;;;;;;6249605;28;20038;-78
2023/11/15 11:14:31;;;;;;;4.30;1.67;;;12.50;99.90;;;;;;6239277;28;20049;-77
2023/11/15 11:17:33;;;;;;;2.47;1.23;;;12.90;99.90;;;;;;6238366;28;20054;-77
2023/11/15 11:20:40;;;;;;;6.15;1.58;;;13.10;99.90;;;;;;6243064;28;20049;-79
2023/11/15 11:24:11;;;;;;;2.80;1.58;;;13.10;99.90;;;;;;6237540;28;20049;-77
2023/11/15 11:27:30;;;;;;;8.20;1.23;;;13.10;99.90;;;;;;6242752;28;20042;-77
2023/11/15 11:30:32;;;;;;;4.90;1.00;;;13.10;99.90;;;;;;6248725;28;20044;-76
2023/11/15 11:33:34;;;;;;;5.45;2.45;;;13.00;99.90;;;;;;6237595;28;20053;-76
2023/11/15 11:36:46;;;;;;;7.15;1.38;;;12.90;99.90;;;;;;6248132;28;20045;-79
2023/11/15 11:39:57;;;;;;;2.65;1.17;;;12.80;99.90;;;;;;6229399;28;20056;-79
2023/11/15 11:43:21;;;;;;;3.70;1.15;;;12.60;99.90;;;;;;6237277;28;20538;-78
2023/11/15 11:46:24;;;;;;;2.90;0.93;;;12.60;99.90;;;;;;6247656;28;20041;-78
2023/11/15 11:49:27;;;;;;;1.27;0.95;;;12.50;99.90;;;;;;6234233;28;20056;-80
2023/11/15 11:52:29;;;;;;;9.90;1.10;;;12.50;99.90;;;;;;6237899;28;20450;-78
2023/11/15 11:55:33;;;;;;;2.45;0.88;;;12.40;99.90;;;;;;6236628;28;20052;-79
2023/11/15 11:58:36;;;;;;;4.20;2.05;;;12.30;99.90;;;;;;6229484;28;20049;-80
2023/11/15 12:01:48;;;;;;;5.10;1.48;;;12.20;99.90;;;;;;6248247;28;20054;-79
2023/11/15 12:04:49;;;;;;;7.70;1.20;;;12.10;99.90;;;;;;6216806;28;20060;-78
2023/11/15 12:07:53;;;;;;;3.45;1.40;;;12.10;99.90;;;;;;6217757;28;20521;-77
2023/11/15 12:10:58;;;;;;;5.20;1.02;;;12.10;99.90;;;;;;6218643;28;20054;-79
2023/11/15 12:14:00;;;;;;;3.95;1.33;;;12.10;99.90;;;;;;6213757;28;20053;-78
2023/11/15 12:17:01;;;;;;;1.77;0.98;;;12.20;99.90;;;;;;6215387;28;20107;-76
2023/11/15 12:20:04;;;;;;;4.50;0.98;;;12.30;99.90;;;;;;6219043;28;20057;-78
2023/11/15 12:23:08;;;;;;;2.70;1.35;;;12.30;99.90;;;;;;6218594;28;20053;-80
2023/11/15 12:26:11;;;;;;;8.00;1.65;;;12.30;99.90;;;;;;6217654;28;20111;-79
2023/11/15 12:29:19;;;;;;;2.45;1.02;;;12.20;99.90;;;;;;6216084;28;20151;-78
2023/11/15 12:32:22;;;;;;;3.30;1.17;;;12.10;99.90;;;;;;6216041;28;20048;-79
2023/11/15 12:35:24;;;;;;;1.85;1.15;;;12.10;99.90;;;;;;6228763;28;20050;-80
2023/11/15 12:38:25;;;;;;;10.05;1.35;;;12.00;99.90;;;;;;6221718;28;20046;-78
2023/11/15 12:41:28;;;;;;;7.22;1.45;;;12.10;99.90;;;;;;6227083;28;20046;-80
2023/11/15 12:44:41;;;;;;;3.58;1.15;;;12.20;99.90;;;;;;6225409;28;20057;-80
2023/11/15 12:47:43;;;;;;;0.85;0.80;;;12.40;99.90;;;;;;6224041;28;20156;-80
2023/11/15 12:50:47;;;;;;;6.47;1.17;;;12.40;99.90;;;;;;6230558;28;20050;-80
2023/11/15 12:53:48;;;;;;;3.63;1.40;;;12.50;99.90;;;;;;6227687;28;20527;-78
2023/11/15 12:57:13;;;;;;;5.70;1.85;;;12.60;99.90;;;;;;6229119;28;20053;-79
2023/11/15 13:00:28;;;;;;;1.95;0.75;;;12.80;99.90;;;;;;6225030;28;20064;-78
2023/11/15 13:03:32;;;;;;;2.00;1.08;;;12.90;99.90;;;;;;6225514;28;20519;-81
2023/11/15 13:06:37;;;;;;;1.48;1.33;;;12.90;99.90;;;;;;6228323;28;20058;-81
2023/11/15 13:09:39;;;;;;;4.57;2.45;;;12.90;99.90;;;;;;6229455;28;20045;-83
2023/11/15 13:12:42;;;;;;;4.22;0.93;;;12.90;99.90;;;;;;6224660;28;20046;-81
2023/11/15 13:15:43;;;;;;;2.13;1.40;;;12.90;99.90;;;;;;6230181;28;20042;-80
2023/11/15 13:18:47;;;;;;;2.72;1.40;;;13.00;99.90;;;;;;6213720;28;20041;-77
2023/11/15 13:21:49;;;;;;;8.90;1.48;;;12.90;99.90;;;;;;6216150;28;20155;-76
2023/11/15 13:24:51;;;;;;;6.63;2.30;;;12.90;99.90;;;;;;6220944;28;20045;-81
2023/11/15 13:27:56;;;;;;;3.42;1.17;;;12.90;99.90;;;;;;6219305;28;20064;-76
2023/11/15 13:30:58;;;;;;;1.63;1.00;;;13.10;99.90;;;;;;6218177;28;20415;-79
2023/11/15 13:34:00;;;;;;;1.58;0.80;;;13.50;99.90;;;;;;6219035;28;20050;-77
2023/11/15 13:37:03;;;;;;;6.78;0.85;;;13.90;99.90;;;;;;6217879;28;20046;-78
2023/11/15 13:40:06;;;;;;;5.78;1.38;;;14.20;99.90;;;;;;6222752;28;20054;-80
2023/11/15 13:43:10;;;;;;;4.75;1.58;;;14.30;99.90;;;;;;6222227;28;20088;-82
2023/11/15 13:46:12;;;;;;;4.55;1.35;;;14.40;99.90;;;;;;6236444;28;20039;-78
2023/11/15 13:49:14;;;;;;;2.63;1.13;;;14.60;99.90;;;;;;6247565;28;20072;-77
2023/11/15 13:52:16;;;;;;;3.03;0.85;;;14.60;99.90;;;;;;6238366;28;20121;-78
2023/11/15 13:55:18;;;;;;;3.95;0.88;;;14.70;99.90;;;;;;6220474;28;20697;-81
2023/11/15 13:58:21;;;;;;;3.80;0.95;;;14.80;99.90;;;;;;6226947;28;20061;-79
2023/11/15 14:01:24;;;;;;;1.08;0.68;;;14.60;99.90;;;;;;6225305;28;20251;-77
2023/11/15 14:04:25;;;;;;;1.27;0.60;;;14.40;99.90;;;;;;6227782;28;20501;-80
2023/11/15 14:07:27;;;;;;;0.90;0.60;;;14.10;99.90;;;;;;6224120;28;20037;-77
2023/11/15 14:10:31;;;;;;;3.42;0.93;;;14.00;99.90;;;;;;6225755;28;20046;-78
2023/11/15 14:13:36;;;;;;;1.67;0.90;;;13.80;99.90;;;;;;6220767;28;20045;-76
2023/11/15 14:16:38;;;;;;;5.43;0.93;;;13.70;99.90;;;;;;6224123;28;20141;-80
2023/11/15 14:19:40;;;;;;;14.45;13.05;;;13.50;99.90;;;;;;6220094;28;20049;-77
2023/11/15 14:22:42;;;;;;;27.45;15.82;;;13.50;99.90;;;;;;6222632;28;20045;-81
2023/11/15 14:25:44;;;;;;;7.07;4.43;;;13.40;99.90;;;;;;6220905;28;20467;-76
2023/11/15 14:28:48;;;;;;;3.05;2.22;;;13.30;99.90;;;;;;6221405;28;20064;-79
2023/11/15 14:31:50;;;;;;;4.25;3.00;;;13.20;99.90;;;;;;6220875;28;20056;-81
2023/11/15 14:34:52;;;;;;;1.65;1.45;;;13.10;99.90;;;;;;6222884;28;20049;-79
2023/11/15 14:37:54;;;;;;;1.92;0.70;;;13.00;99.90;;;;;;6224436;28;20065;-76
2023/11/15 14:40:57;;;;;;;9.70;1.73;;;13.00;99.90;;;;;;6221121;28;20518;-81
2023/11/15 14:44:00;;;;;;;6.07;1.02;;;12.90;99.90;;;;;;6220802;28;20076;-78
2023/11/15 14:47:01;;;;;;;7.30;2.15;;;12.90;99.90;;;;;;6223562;28;20057;-80
2023/11/15 14:50:04;;;;;;;1.38;0.80;;;12.90;99.90;;;;;;6225430;28;20513;-79
2023/11/15 14:53:18;;;;;;;5.00;1.17;;;12.90;99.90;;;;;;6221056;28;20057;-79
2023/11/15 14:56:20;;;;;;;3.03;1.38;;;12.90;99.90;;;;;;6226910;28;20135;-78
2023/11/15 14:59:24;;;;;;;4.85;1.08;;;12.90;99.90;;;;;;6220653;28;20510;-77
2023/11/15 15:02:25;;;;;;;1.90;0.80;;;12.90;99.90;;;;;;6225780;28;20119;-78
2023/11/15 15:05:27;;;;;;;3.50;1.02;;;12.90;99.90;;;;;;6230710;28;20049;-80
2023/11/15 15:08:29;;;;;;;1.45;1.33;;;12.80;99.90;;;;;;6229459;28;20053;-80
2023/11/15 15:11:32;;;;;;;2.63;1.00;;;12.70;99.90;;;;;;6227446;28;20085;-80
2023/11/15 15:14:35;;;;;;;1.67;1.00;;;12.70;99.90;;;;;;6227805;28;20069;-80
2023/11/15 15:17:37;;;;;;;1.70;0.75;;;12.70;99.90;;;;;;6226715;28;20041;-80
2023/11/15 15:20:39;;;;;;;3.78;1.23;;;12.60;99.90;;;;;;6227820;28;20077;-81
2023/11/15 15:23:41;;;;;;;6.20;1.23;;;12.60;99.90;;;;;;6225861;28;20049;-81
2023/11/15 15:26:42;;;;;;;1.73;1.20;;;12.40;99.90;;;;;;6225694;28;20121;-78
2023/11/15 15:29:48;;;;;;;7.00;2.58;;;12.40;99.90;;;;;;6227220;28;20502;-79
2023/11/15 15:32:50;;;;;;;2.90;1.20;;;12.30;99.90;;;;;;6224208;28;20050;-75
2023/11/15 15:35:52;;;;;;;3.67;1.33;;;12.20;99.90;;;;;;6220819;28;20048;-79
2023/11/15 15:38:55;;;;;;;2.67;1.30;;;12.10;99.90;;;;;;6225947;28;20053;-80
2023/11/15 15:41:57;;;;;;;3.42;1.10;;;12.10;99.90;;;;;;6225728;28;20077;-79
2023/11/15 15:45:00;;;;;;;2.10;0.90;;;12.00;99.90;;;;;;6221539;28;20140;-79
2023/11/15 15:48:03;;;;;;;3.80;1.95;;;11.90;99.90;;;;;;6226278;28;20126;-76
2023/11/15 15:51:05;;;;;;;2.30;0.90;;;11.80;99.90;;;;;;6222776;28;20041;-79
2023/11/15 15:54:08;;;;;;;3.15;1.80;;;11.70;99.90;;;;;;6217759;28;20053;-78
2023/11/15 15:57:10;;;;;;;1.58;1.02;;;11.60;99.90;;;;;;6220862;28;20178;-81
2023/11/15 16:00:16;;;;;;;5.82;1.48;;;11.60;99.90;;;;;;6223997;28;20057;-82
2023/11/15 16:03:18;;;;;;;5.18;1.23;;;11.50;99.90;;;;;;6222931;28;20089;-78
2023/11/15 16:06:22;;;;;;;5.10;1.20;;;11.30;99.90;;;;;;6220312;28;20049;-79
2023/11/15 16:09:23;;;;;;;6.10;1.70;;;11.30;99.90;;;;;;6226260;28;20520;-79
2023/11/15 16:12:25;;;;;;;12.50;1.85;;;11.20;99.90;;;;;;6218568;28;20046;-79
2023/11/15 16:15:28;;;;;;;3.83;1.50;;;11.10;99.90;;;;;;6218226;28;20049;-81
2023/11/15 16:18:30;;;;;;;3.65;1.80;;;11.10;99.90;;;;;;6221347;28;20054;-76
2023/11/15 16:21:32;;;;;;;1.65;1.27;;;11.10;99.90;;;;;;6225151;28;20395;-76
2023/11/15 16:24:33;;;;;;;3.13;1.88;;;11.10;99.90;;;;;;6228262;28;20073;-79
2023/11/15 16:27:36;;;;;;;11.85;4.10;;;11.10;99.90;;;;;;6228792;28;20054;-79
2023/11/15 16:30:40;;;;;;;4.82;4.40;;;11.10;99.90;;;;;;6226508;28;20124;-80
2023/11/15 16:33:41;;;;;;;4.47;1.80;;;11.10;99.90;;;;;;6227858;28;20046;-79
2023/11/15 16:36:47;;;;;;;12.00;2.95;;;11.10;99.90;;;;;;6228168;28;20057;-80
2023/11/15 16:39:50;;;;;;;5.47;1.85;;;11.20;99.90;;;;;;6227531;28;20042;-79
2023/11/15 16:42:52;;;;;;;6.18;2.10;;;11.20;99.90;;;;;;6225303;28;20068;-77
2023/11/15 16:45:55;;;;;;;5.63;1.60;;;11.30;99.90;;;;;;6227582;28;20419;-79
2023/11/15 16:48:57;;;;;;;3.47;3.13;;;11.30;99.90;;;;;;6226779;28;20056;-80
2023/11/15 16:52:01;;;;;;;9.23;1.65;;;11.30;99.90;;;;;;6225345;28;20052;-77
2023/11/15 16:55:03;;;;;;;3.70;1.55;;;11.30;99.90;;;;;;6228738;28;20048;-79
2023/11/15 16:58:05;;;;;;;5.13;1.58;;;11.20;99.90;;;;;;6224790;28;20456;-78
2023/11/15 17:01:08;;;;;;;2.08;1.33;;;11.20;99.90;;;;;;6227458;28;20446;-79
2023/11/15 17:04:10;;;;;;;2.63;1.27;;;11.20;99.90;;;;;;6222306;28;20046;-78
2023/11/15 17:07:11;;;;;;;5.05;1.42;;;11.10;99.90;;;;;;6227457;28;20045;-79
2023/11/15 17:10:13;;;;;;;1.80;1.42;;;11.10;99.90;;;;;;6221343;28;20046;-76
2023/11/15 17:13:16;;;;;;;4.85;1.73;;;11.10;99.90;;;;;;6225500;28;20419;-79
2023/11/15 17:16:19;;;;;;;2.25;1.23;;;11.20;99.90;;;;;;6227258;28;20136;-80
2023/11/15 17:19:21;;;;;;;6.93;1.33;;;11.20;99.90;;;;;;6222787;28;20053;-79
2023/11/15 17:22:22;;;;;;;2.78;1.15;;;11.20;99.90;;;;;;6225360;28;20097;-78
2023/11/15 17:25:25;;;;;;;1.63;1.13;;;11.30;99.90;;;;;;6226631;28;20065;-76
2023/11/15 17:28:27;;;;;;;4.53;1.33;;;11.30;99.90;;;;;;6237024;28;20072;-78
2023/11/15 17:31:32;;;;;;;4.05;0.73;;;11.40;99.90;;;;;;6231603;28;20135;-80
2023/11/15 17:34:34;;;;;;;6.35;1.77;;;11.40;99.90;;;;;;6227555;28;20094;-80
2023/11/15 17:37:35;;;;;;;0.60;0.60;;;11.40;99.90;;;;;;6221600;28;20045;-79
2023/11/15 17:40:38;;;;;;;2.03;1.35;;;11.40;99.90;;;;;;6227985;28;20139;-79
2023/11/15 17:43:39;;;;;;;3.60;1.30;;;11.40;99.90;;;;;;6224619;28;20056;-78
2023/11/15 17:46:43;;;;;;;2.40;1.10;;;11.40;99.90;;;;;;6224856;28;20077;-79
2023/11/15 17:49:46;;;;;;;2.20;1.02;;;11.40;99.90;;;;;;6223249;28;20046;-80
2023/11/15 17:52:48;;;;;;;1.55;0.80;;;11.30;99.90;;;;;;6228273;28;20111;-78
2023/11/15 17:55:49;;;;;;;3.35;1.13;;;11.20;99.90;;;;;;6224274;28;20053;-81
2023/11/15 17:58:52;;;;;;;3.70;2.63;;;11.10;99.90;;;;;;6223277;28;20065;-79
2023/11/15 18:01:55;;;;;;;2.90;1.10;;;11.00;99.90;;;;;;6224460;28;20050;-79
2023/11/15 18:04:58;;;;;;;5.05;1.33;;;11.00;99.90;;;;;;6224391;28;20491;-80
2023/11/15 18:08:00;;;;;;;1.10;1.00;;;10.90;99.90;;;;;;6223797;28;20531;-79
2023/11/15 18:11:03;;;;;;;4.68;1.05;;;10.90;99.90;;;;;;6228501;28;20045;-79
2023/11/15 18:14:05;;;;;;;2.60;1.02;;;10.80;99.90;;;;;;6227257;28;20050;-79
2023/11/15 18:17:08;;;;;;;5.75;1.25;;;10.70;99.90;;;;;;6224074;28;20579;-78
2023/11/15 18:20:11;;;;;;;4.18;1.00;;;10.60;99.90;;;;;;6226535;28;20049;-78
2023/11/15 18:23:13;;;;;;;7.85;1.27;;;10.60;99.90;;;;;;6223680;28;20045;-79
2023/11/15 18:26:15;;;;;;;2.35;1.70;;;10.50;99.90;;;;;;6230811;28;20056;-79
2023/11/15 18:29:16;;;;;;;4.18;1.00;;;10.50;99.90;;;;;;6224302;28;20053;-79
2023/11/15 18:32:21;;;;;;;8.93;1.45;;;10.40;99.90;;;;;;6229296;28;20053;-79
2023/11/15 18:35:23;;;;;;;6.88;1.30;;;10.40;99.90;;;;;;6228735;28;20045;-79
2023/11/15 18:38:26;;;;;;;3.28;1.17;;;10.30;99.90;;;;;;6225243;28;20055;-80
2023/11/15 18:41:27;;;;;;;1.60;1.38;;;10.30;99.90;;;;;;6219798;28;20147;-79
2023/11/15 18:44:31;;;;;;;8.57;3.42;;;10.20;99.90;;;;;;6221708;28;20129;-79
2023/11/15 18:47:34;;;;;;;5.68;2.03;;;10.20;99.90;;;;;;6221171;28;20061;-78
2023/11/15 18:50:36;;;;;;;7.30;1.65;;;10.20;99.90;;;;;;6225355;28;20095;-79
2023/11/15 18:53:38;;;;;;;8.15;1.40;;;10.20;99.90;;;;;;6221866;28;20042;-78
2023/11/15 18:56:41;;;;;;;6.10;1.85;;;10.20;99.90;;;;;;6221937;28;20058;-79
2023/11/15 18:59:43;;;;;;;2.63;1.38;;;10.30;99.90;;;;;;6222192;28;20050;-79
2023/11/15 19:02:46;;;;;;;3.05;1.65;;;10.40;99.90;;;;;;6224128;28;20048;-79
2023/11/15 19:05:48;;;;;;;0.98;0.93;;;10.50;99.90;;;;;;6222948;28;20044;-79